EGGW

London Luton Airport

London, United Kingdom
METAR EGGW 160620Z AUTO 32005KT 270V050 9999 NCD 19/12 Q1014
Observed Flight Rules
Jul-16 @ 06:20 UTC (34 minutes ago) Visual Flight Rules
Wind Visibility Clouds
320° at 5 knots 10,000+ meters
  • Clear skies
Temperatures Readings
Current 19°C / 66°F
Dewpoint 12°C / 54°F
Humidity 64%
Altimeter 29.94" Hg
Pressure 1014 hPa
Elevation 160
METAR EGGW 160620Z AUTO 32005KT 270V050 9999 NCD 19/12 Q1014
Observed Flight Rules
Jul-16 @ 06:20 UTC
(34 minutes ago)
VFR
Wind Visibility
320° at 5 knots 10,000+ meters
Clouds
  • Clear skies
Temperature Dewpoint
19°C / 66°F 12°C / 54°F
Humidity Altimeter Pressure
64% 29.94" Hg 1014 hPa